Борисполь

Карта отелей и гостиниц, располагающихся рядом с аэропортом Борисполь :

Борисполь
Киев
Киевская область 50° 20' 28.2588" N, 30° 53' 41.5212" E
Код аэродрома ИКАО
UKBB
Код аэродрома RU
УКББ
Координаты
N50.34118° E030.89487°
Превышение над уровнем моря
131
Основная полоса
18L/36R
Курс магнитный
356/176
Длина основной ВПП
4000
Ширина основной ВПП
60
Покрытие основной ВПП
Твёрдое (асфальтобетон)
Освещение ВПП
Постоянное
Тип: 
Аэродром
Класс аэродрома: 
Международный
Принадлежность: 
ГА
Статус: 
Действующий
Сайт: 
www.kbp.kiev.ua
E-mail аэродрома: 
lev@airport-borispol.kiev.ua
Страна: 
Украина
Регион: 
Киевская область
Город: 
Киев
Погода: 

Авиационная погода в Борисполе

Регион: 
Погода METAR: 
UKBB 172100Z 03004MPS CAVOK 21/14 Q1020 R88/CLRD// NOSIG
Время наблюдения
2021-06-17T21:00:00Z
Температура C
21.0
Точка росы
14.0
Направление ветра
30
Скорость ветра (узлы)
8
Метео видимость
6.21
Явления погоды
Условия полета
VFR
Аэропорт подробнее: 

Найти трансфер

С помощью этой формы Вы можете найти трансфер из аэропорта Борисполь в город, аэропорт или вокзал:

Карта места

Javascript is required to view this map.

Погода в аэропортах:

Авиационная погода в Запорожье

Регион: 
Погода METAR: 
UKDE 172100Z 00000MPS 6000 -SHRA BKN018CB 19/18 Q1015 R02/190060 NOSIG
Время наблюдения
2021-06-17T21:00:00Z
Температура C
19.0
Точка росы
18.0
Направление ветра
0
Скорость ветра (узлы)
0
Метео видимость
3.73
Явления погоды
-SHRA
Условия полета
MVFR
Аэропорт подробнее: 

Авиационная погода в Днепропетровске

Регион: 
Погода METAR: 
UKDD 172100Z 04003MPS 7000 -TSRA BKN006 BKN018CB 18/17 Q1015 R08/090070 TEMPO VRB09G14MPS 1100 SHRA BKN015CB
Время наблюдения
2021-06-17T21:00:00Z
Температура C
18.0
Точка росы
17.0
Направление ветра
40
Скорость ветра (узлы)
6
Метео видимость
4.35
Явления погоды
-TSRA
Условия полета
IFR
Аэропорт подробнее: 

Авиационная погода в Мурманске

Регион: 
Погода METAR: 
ULMM 172100Z 00000MPS 9999 -SHRA BKN030CB 10/09 Q1010 R31/190065 NOSIG RMK QFE750
Время наблюдения
2021-06-17T21:00:00Z
Температура C
10.0
Точка росы
9.0
Направление ветра
0
Скорость ветра (узлы)
0
Метео видимость
6.21
Явления погоды
-SHRA
Условия полета
MVFR
Аэропорт подробнее: 

Авиационная погода в Кишинёве

Регион: 
Погода METAR: 
LUKK 172100Z 03005KT 010V070 8000 -SHRA BKN012 BKN018CB 20/19 Q1015 RESHRA R08/290152 NOSIG
Время наблюдения
2021-06-17T21:00:00Z
Температура C
20.0
Точка росы
19.0
Направление ветра
30
Скорость ветра (узлы)
5
Метео видимость
4.97
Явления погоды
-SHRA
Условия полета
MVFR